createdAt,value
2023-02-04T00:00:07.987Z,5.60
2023-02-04T00:00:18.760Z,5.59
2023-02-04T00:00:30.984Z,5.57
2023-02-04T00:00:43.936Z,5.57
2023-02-04T00:00:56.660Z,5.55
2023-02-04T00:01:09.434Z,5.55
2023-02-04T00:01:20.191Z,5.55
2023-02-04T00:01:31.938Z,5.53
2023-02-04T00:01:44.425Z,5.50
2023-02-04T00:01:56.463Z,5.50
2023-02-04T00:02:08.442Z,5.50
2023-02-04T00:02:19.193Z,5.49
2023-02-04T00:02:32.965Z,5.48
2023-02-04T00:02:44.868Z,5.48
2023-02-04T00:02:58.128Z,5.46
2023-02-04T00:03:09.940Z,5.45
2023-02-04T00:03:22.415Z,5.45
2023-02-04T00:03:34.119Z,5.43
2023-02-04T00:03:45.879Z,5.41
2023-02-04T00:03:57.624Z,5.41
2023-02-04T00:04:09.850Z,5.40
2023-02-04T00:04:20.599Z,5.38
2023-02-04T00:04:33.037Z,5.38
2023-02-04T00:04:44.992Z,5.37
2023-02-04T00:04:55.792Z,5.35
2023-02-04T00:05:08.260Z,5.37
2023-02-04T00:05:19.182Z,5.34
2023-02-04T00:05:30.948Z,5.34
2023-02-04T00:05:42.640Z,5.34
2023-02-04T00:05:54.372Z,5.32
2023-02-04T00:06:07.577Z,5.32
2023-02-04T00:06:19.343Z,5.31
2023-02-04T00:06:31.119Z,5.30
2023-02-04T00:06:43.573Z,5.28
2023-02-04T00:06:56.054Z,5.28
2023-02-04T00:07:07.800Z,5.27
2023-02-04T00:07:19.789Z,5.25
2023-02-04T00:07:31.550Z,5.22
2023-02-04T00:07:44.041Z,5.22
2023-02-04T00:07:57.291Z,5.20
2023-02-04T00:08:08.162Z,5.19
2023-02-04T00:08:18.954Z,5.19
2023-02-04T00:08:31.710Z,5.17
2023-02-04T00:08:43.452Z,5.16
2023-02-04T00:08:56.172Z,5.14
2023-02-04T00:09:06.961Z,5.14
2023-02-04T00:09:19.400Z,5.16
2023-02-04T00:09:31.109Z,5.13
2023-02-04T00:09:42.899Z,5.12
2023-02-04T00:09:54.670Z,5.10
2023-02-04T00:10:07.910Z,5.10
2023-02-04T00:10:19.708Z,5.10
2023-02-04T00:10:32.721Z,5.10
2023-02-04T00:10:45.381Z,5.07
2023-02-04T00:10:57.830Z,5.07
2023-02-04T00:11:08.592Z,5.09
2023-02-04T00:11:21.035Z,5.04
2023-02-04T00:11:32.776Z,5.05
2023-02-04T00:11:44.470Z,5.04
2023-02-04T00:11:56.961Z,5.04
2023-02-04T00:12:07.740Z,5.05
2023-02-04T00:12:18.501Z,5.04
2023-02-04T00:12:30.191Z,5.04
2023-02-04T00:12:41.913Z,5.04
2023-02-04T00:12:53.650Z,5.04
2023-02-04T00:13:05.393Z,5.02
2023-02-04T00:13:16.382Z,5.02
2023-02-04T00:13:27.112Z,5.04
2023-02-04T00:13:38.813Z,5.04
2023-02-04T00:13:50.540Z,5.02
2023-02-04T00:14:02.277Z,5.02
2023-02-04T00:14:14.780Z,5.04
2023-02-04T00:14:26.513Z,5.04
2023-02-04T00:14:38.954Z,5.02
2023-02-04T00:14:50.696Z,5.04
2023-02-04T00:15:01.474Z,5.04
2023-02-04T00:15:13.924Z,5.04
2023-02-04T00:15:26.412Z,5.04
2023-02-04T00:15:39.637Z,5.05
2023-02-04T00:15:52.377Z,5.05
2023-02-04T00:16:04.166Z,5.05
2023-02-04T00:16:16.711Z,5.07
2023-02-04T00:16:29.986Z,5.07
2023-02-04T00:16:40.777Z,5.07
2023-02-04T00:16:52.500Z,5.07
2023-02-04T00:17:08.278Z,5.07
2023-02-04T00:17:19.054Z,5.07
2023-02-04T00:17:29.876Z,5.07
2023-02-04T00:17:42.342Z,5.07
2023-02-04T00:17:53.154Z,5.07
2023-02-04T00:18:03.922Z,5.09
2023-02-04T00:18:16.386Z,5.07
2023-02-04T00:18:29.123Z,5.09
2023-02-04T00:18:40.900Z,5.07
2023-02-04T00:18:52.744Z,5.07
2023-02-04T00:19:04.474Z,5.07
2023-02-04T00:19:15.224Z,5.07
2023-02-04T00:19:28.441Z,5.05
2023-02-04T00:19:40.208Z,5.05
2023-02-04T00:19:50.969Z,5.07
2023-02-04T00:20:03.433Z,5.05
2023-02-04T00:20:15.914Z,5.05
2023-02-04T00:20:27.801Z,5.05
2023-02-04T00:20:39.648Z,5.05
2023-02-04T00:20:52.891Z,5.04
2023-02-04T00:21:04.731Z,5.04
2023-02-04T00:21:17.704Z,5.04
2023-02-04T00:21:29.441Z,5.04
2023-02-04T00:21:41.895Z,5.02
2023-02-04T00:21:52.734Z,5.04
2023-02-04T00:22:03.507Z,5.02
2023-02-04T00:22:15.291Z,5.02
2023-02-04T00:22:26.965Z,5.01
2023-02-04T00:22:39.914Z,5.01
2023-02-04T00:22:52.404Z,5.01
2023-02-04T00:23:04.836Z,4.99
2023-02-04T00:23:16.572Z,5.01
2023-02-04T00:23:27.324Z,4.98
2023-02-04T00:23:39.593Z,4.99
2023-02-04T00:23:52.304Z,4.99
2023-02-04T00:24:04.615Z,5.01
2023-02-04T00:24:17.073Z,4.99
2023-02-04T00:24:27.804Z,4.98
2023-02-04T00:24:39.517Z,4.98
2023-02-04T00:24:51.996Z,4.98
2023-02-04T00:25:02.758Z,4.98
2023-02-04T00:25:13.568Z,4.96
2023-02-04T00:25:24.304Z,4.98
2023-02-04T00:25:36.608Z,4.96
2023-02-04T00:25:48.840Z,4.96
2023-02-04T00:26:01.748Z,4.96
2023-02-04T00:26:13.998Z,4.95
2023-02-04T00:26:26.228Z,4.96
2023-02-04T00:26:37.956Z,4.95
2023-02-04T00:26:50.218Z,4.95
2023-02-04T00:27:00.997Z,4.95
2023-02-04T00:27:12.752Z,4.94
2023-02-04T00:27:25.777Z,4.95
2023-02-04T00:27:37.547Z,4.94
2023-02-04T00:27:50.025Z,4.94
2023-02-04T00:28:00.894Z,4.94
2023-02-04T00:28:12.690Z,4.94
2023-02-04T00:28:23.470Z,4.92
2023-02-04T00:28:35.198Z,4.92
2023-02-04T00:28:45.944Z,4.92
2023-02-04T00:28:58.417Z,4.91
2023-02-04T00:29:10.198Z,4.92
2023-02-04T00:29:22.771Z,4.92
2023-02-04T00:29:34.775Z,4.92
2023-02-04T00:29:47.239Z,4.91
2023-02-04T00:29:58.947Z,4.91
2023-02-04T00:30:09.738Z,4.91
2023-02-04T00:30:22.455Z,4.89
2023-02-04T00:30:34.174Z,4.92
2023-02-04T00:30:46.630Z,4.91
2023-02-04T00:30:57.423Z,4.91
2023-02-04T00:31:09.209Z,4.91
2023-02-04T00:31:21.778Z,4.92
2023-02-04T00:31:34.424Z,4.91
2023-02-04T00:31:46.799Z,4.92
2023-02-04T00:31:59.487Z,4.91
2023-02-04T00:32:11.386Z,4.91
2023-02-04T00:32:23.235Z,4.91
2023-02-04T00:32:34.023Z,4.91
2023-02-04T00:32:45.780Z,4.91
2023-02-04T00:32:57.530Z,4.89
2023-02-04T00:33:10.000Z,4.91
2023-02-04T00:33:20.847Z,4.91
2023-02-04T00:33:31.619Z,4.91
2023-02-04T00:33:44.340Z,4.89
2023-02-04T00:33:56.089Z,4.91
2023-02-04T00:34:06.850Z,4.91
2023-02-04T00:34:19.342Z,4.91
2023-02-04T00:34:31.882Z,4.91
2023-02-04T00:34:43.627Z,4.92
2023-02-04T00:34:56.583Z,4.95
2023-02-04T00:35:07.378Z,4.96
2023-02-04T00:35:19.112Z,4.99
2023-02-04T00:35:29.941Z,4.98
2023-02-04T00:35:41.643Z,5.01
2023-02-04T00:35:52.432Z,4.99
2023-02-04T00:36:07.151Z,5.01
2023-02-04T00:36:19.155Z,5.01
2023-02-04T00:36:31.595Z,5.02
2023-02-04T00:36:44.041Z,5.02
2023-02-04T00:36:57.200Z,5.04
2023-02-04T00:37:08.006Z,5.05
2023-02-04T00:37:19.011Z,5.07
2023-02-04T00:37:30.745Z,5.09
2023-02-04T00:37:42.744Z,5.10
2023-02-04T00:37:54.495Z,5.10
2023-02-04T00:38:05.241Z,5.13
2023-02-04T00:38:18.481Z,5.16
2023-02-04T00:38:29.283Z,5.19
2023-02-04T00:38:40.053Z,5.19
2023-02-04T00:38:50.843Z,5.22
2023-02-04T00:39:01.632Z,5.20
2023-02-04T00:39:13.402Z,5.22
2023-02-04T00:39:24.193Z,5.22
2023-02-04T00:39:34.951Z,5.22
2023-02-04T00:39:45.775Z,5.22
2023-02-04T00:39:56.703Z,5.23
2023-02-04T00:40:10.427Z,5.23
2023-02-04T00:40:21.488Z,5.25
2023-02-04T00:40:32.562Z,5.25
2023-02-04T00:40:43.385Z,5.23
2023-02-04T00:40:54.174Z,5.23
2023-02-04T00:41:04.914Z,5.25
2023-02-04T00:41:15.731Z,5.25
2023-02-04T00:41:27.475Z,5.28
2023-02-04T00:41:39.918Z,5.28
2023-02-04T00:41:50.698Z,5.30
2023-02-04T00:42:03.214Z,5.28
2023-02-04T00:42:15.694Z,5.30
2023-02-04T00:42:26.516Z,5.28
2023-02-04T00:42:38.770Z,5.30
2023-02-04T00:42:51.725Z,5.28
2023-02-04T00:43:03.494Z,5.28
2023-02-04T00:43:14.504Z,5.28
2023-02-04T00:43:26.247Z,5.27
2023-02-04T00:43:37.989Z,5.27
2023-02-04T00:43:48.897Z,5.28
2023-02-04T00:44:02.633Z,5.28
2023-02-04T00:44:14.397Z,5.27
2023-02-04T00:44:27.135Z,5.28
2023-02-04T00:44:37.878Z,5.30
2023-02-04T00:44:50.056Z,5.30
2023-02-04T00:45:01.817Z,5.28
2023-02-04T00:45:12.573Z,5.28
2023-02-04T00:45:25.058Z,5.30
2023-02-04T00:45:37.547Z,5.28
2023-02-04T00:45:49.780Z,5.28
2023-02-04T00:46:00.703Z,5.27
2023-02-04T00:46:12.506Z,5.27
2023-02-04T00:46:24.736Z,5.25
2023-02-04T00:46:35.525Z,5.23
2023-02-04T00:46:47.475Z,5.23
2023-02-04T00:46:59.243Z,5.22
2023-02-04T00:47:11.967Z,5.22
2023-02-04T00:47:23.695Z,5.20
2023-02-04T00:47:34.517Z,5.19
2023-02-04T00:47:46.235Z,5.16
2023-02-04T00:47:59.215Z,5.16
2023-02-04T00:48:11.457Z,5.14
2023-02-04T00:48:25.382Z,5.12
2023-02-04T00:48:39.076Z,5.12
2023-02-04T00:48:49.854Z,5.10
2023-02-04T00:49:00.869Z,5.09
2023-02-04T00:49:13.323Z,5.07
2023-02-04T00:49:25.069Z,5.05
2023-02-04T00:49:35.855Z,5.05
2023-02-04T00:49:46.585Z,5.04
2023-02-04T00:49:58.363Z,5.05
2023-02-04T00:50:10.096Z,5.01
2023-02-04T00:50:22.297Z,5.01
2023-02-04T00:50:34.084Z,5.01
2023-02-04T00:50:45.844Z,5.01
2023-02-04T00:50:58.317Z,5.01
2023-02-04T00:51:09.048Z,5.01
2023-02-04T00:51:20.803Z,5.02
2023-02-04T00:51:31.587Z,5.04
2023-02-04T00:51:44.021Z,5.05
2023-02-04T00:51:57.234Z,5.04
2023-02-04T00:52:08.965Z,5.05
2023-02-04T00:52:23.165Z,5.05
2023-02-04T00:52:37.435Z,5.05
2023-02-04T00:52:49.146Z,5.04
2023-02-04T00:53:01.606Z,5.05
2023-02-04T00:53:13.333Z,5.04
2023-02-04T00:53:25.589Z,5.04
2023-02-04T00:53:37.561Z,5.05
2023-02-04T00:53:49.285Z,5.04
2023-02-04T00:54:00.108Z,5.04
2023-02-04T00:54:11.057Z,5.04
2023-02-04T00:54:21.915Z,5.02
2023-02-04T00:54:33.675Z,5.02
2023-02-04T00:54:46.155Z,5.04
2023-02-04T00:54:56.921Z,5.02
2023-02-04T00:55:09.385Z,5.01
2023-02-04T00:55:20.117Z,5.04
2023-02-04T00:55:32.593Z,5.05
2023-02-04T00:55:43.347Z,5.05
2023-02-04T00:55:55.569Z,5.05
2023-02-04T00:56:06.341Z,5.05
2023-02-04T00:56:18.891Z,5.09
2023-02-04T00:56:30.636Z,5.09
2023-02-04T00:56:41.375Z,5.09
2023-02-04T00:56:53.117Z,5.09
2023-02-04T00:57:05.577Z,5.09
2023-02-04T00:57:16.308Z,5.07
2023-02-04T00:57:28.778Z,5.07
2023-02-04T00:57:39.570Z,5.07
2023-02-04T00:57:51.305Z,5.05
2023-02-04T00:58:02.081Z,5.04
2023-02-04T00:58:12.908Z,5.04
2023-02-04T00:58:25.129Z,5.02
2023-02-04T00:58:39.789Z,5.01
2023-02-04T00:58:52.259Z,5.01
2023-02-04T00:59:03.049Z,5.01
2023-02-04T00:59:15.540Z,5.01
2023-02-04T00:59:27.312Z,5.01
2023-02-04T00:59:39.788Z,5.01
2023-02-04T00:59:50.558Z,5.01
2023-02-04T01:00:01.394Z,5.02
2023-02-04T01:00:13.158Z,5.04
2023-02-04T01:00:23.992Z,5.04
2023-02-04T01:00:36.979Z,5.04
2023-02-04T01:00:50.100Z,5.05
2023-02-04T01:01:02.846Z,5.05
2023-02-04T01:01:15.368Z,5.04
2023-02-04T01:01:27.113Z,5.04
2023-02-04T01:01:38.868Z,5.04
2023-02-04T01:01:53.600Z,5.02
2023-02-04T01:02:06.089Z,5.02
2023-02-04T01:02:18.607Z,5.01
2023-02-04T01:02:31.251Z,5.01
2023-02-04T01:02:42.061Z,5.01
2023-02-04T01:02:54.591Z,5.01
2023-02-04T01:03:06.336Z,4.99
2023-02-04T01:03:18.070Z,4.99
2023-02-04T01:03:29.821Z,5.01
2023-02-04T01:03:42.346Z,5.02
2023-02-04T01:03:53.212Z,5.04
2023-02-04T01:04:05.019Z,5.04
2023-02-04T01:04:18.174Z,5.04
2023-02-04T01:04:29.148Z,5.05
2023-02-04T01:04:40.933Z,5.05
2023-02-04T01:04:51.773Z,5.07
2023-02-04T01:05:03.573Z,5.07
2023-02-04T01:05:14.391Z,5.09
2023-02-04T01:05:25.229Z,5.10
2023-02-04T01:05:36.980Z,5.13
2023-02-04T01:05:47.776Z,5.12
2023-02-04T01:06:00.285Z,5.12
2023-02-04T01:06:11.077Z,5.13
2023-02-04T01:06:21.853Z,5.12
2023-02-04T01:06:32.602Z,5.13
2023-02-04T01:06:45.122Z,5.13
2023-02-04T01:06:57.645Z,5.13
2023-02-04T01:07:08.449Z,5.13
2023-02-04T01:07:19.215Z,5.12
2023-02-04T01:07:31.072Z,5.13
2023-02-04T01:07:42.993Z,5.13
2023-02-04T01:07:53.819Z,5.12
2023-02-04T01:08:04.825Z,5.12
2023-02-04T01:08:15.645Z,5.13
2023-02-04T01:08:26.462Z,5.13
2023-02-04T01:08:37.214Z,5.14
2023-02-04T01:08:48.023Z,5.13
2023-02-04T01:09:00.562Z,5.13
2023-02-04T01:09:11.372Z,5.12
2023-02-04T01:09:22.172Z,5.14
2023-02-04T01:09:32.974Z,5.12
2023-02-04T01:09:43.765Z,5.13
2023-02-04T01:09:57.022Z,5.12
2023-02-04T01:10:09.485Z,5.12
2023-02-04T01:10:20.475Z,5.13
2023-02-04T01:10:33.105Z,5.12
2023-02-04T01:10:44.214Z,5.12
2023-02-04T01:10:55.405Z,5.13
2023-02-04T01:11:06.200Z,5.12
2023-02-04T01:11:17.929Z,5.12
2023-02-04T01:11:28.694Z,5.12
2023-02-04T01:11:39.519Z,5.12
2023-02-04T01:11:52.741Z,5.10
2023-02-04T01:12:03.515Z,5.13
2023-02-04T01:12:14.289Z,5.12
2023-02-04T01:12:26.892Z,5.12
2023-02-04T01:12:37.895Z,5.13
2023-02-04T01:12:48.768Z,5.13
2023-02-04T01:13:00.623Z,5.16
2023-02-04T01:13:11.359Z,5.19
2023-02-04T01:13:23.178Z,5.19
2023-02-04T01:13:33.950Z,5.20
2023-02-04T01:13:44.708Z,5.20
2023-02-04T01:13:55.507Z,5.20
2023-02-04T01:14:06.313Z,5.22
2023-02-04T01:14:17.138Z,5.22
2023-02-04T01:14:27.950Z,5.22
2023-02-04T01:14:38.737Z,5.20
2023-02-04T01:14:52.479Z,5.20
2023-02-04T01:15:05.012Z,5.20
2023-02-04T01:15:17.275Z,5.20
2023-02-04T01:15:29.770Z,5.19
2023-02-04T01:15:42.250Z,5.17
2023-02-04T01:15:53.071Z,5.17
2023-02-04T01:16:03.872Z,5.17
2023-02-04T01:16:15.638Z,5.16
2023-02-04T01:16:26.507Z,5.17
2023-02-04T01:16:37.341Z,5.16
2023-02-04T01:16:49.164Z,5.16
2023-02-04T01:16:59.986Z,5.16
2023-02-04T01:17:10.763Z,5.14
2023-02-04T01:17:21.545Z,5.16
2023-02-04T01:17:32.357Z,5.16
2023-02-04T01:17:43.159Z,5.17
2023-02-04T01:17:54.017Z,5.19
2023-02-04T01:18:04.804Z,5.19
2023-02-04T01:18:15.610Z,5.17
2023-02-04T01:18:26.337Z,5.19
2023-02-04T01:18:37.097Z,5.19
2023-02-04T01:18:47.919Z,5.19
2023-02-04T01:18:58.717Z,5.19
2023-02-04T01:19:09.514Z,5.17
2023-02-04T01:19:22.248Z,5.17
2023-02-04T01:19:35.464Z,5.16
2023-02-04T01:19:46.278Z,5.16
2023-02-04T01:19:57.991Z,5.16
2023-02-04T01:20:08.787Z,5.16
2023-02-04T01:20:19.527Z,5.13
2023-02-04T01:20:30.703Z,5.14
2023-02-04T01:20:43.314Z,5.14
2023-02-04T01:20:55.098Z,5.13
2023-02-04T01:21:05.869Z,5.13
2023-02-04T01:21:16.669Z,5.14
2023-02-04T01:21:28.410Z,5.14
2023-02-04T01:21:40.967Z,5.13
2023-02-04T01:21:51.810Z,5.13
2023-02-04T01:22:03.558Z,5.10
2023-02-04T01:22:15.562Z,5.12
2023-02-04T01:22:26.329Z,5.09
2023-02-04T01:22:38.760Z,5.10
2023-02-04T01:22:49.490Z,5.07
2023-02-04T01:23:03.230Z,5.07
2023-02-04T01:23:14.002Z,5.05
2023-02-04T01:23:25.738Z,5.04
2023-02-04T01:23:36.517Z,5.01
2023-02-04T01:23:48.240Z,5.01
2023-02-04T01:23:59.157Z,5.02
2023-02-04T01:24:12.881Z,5.01
2023-02-04T01:24:25.323Z,4.99
2023-02-04T01:24:37.581Z,4.98
2023-02-04T01:24:51.838Z,4.96
2023-02-04T01:25:03.610Z,4.98
2023-02-04T01:25:16.119Z,4.96
2023-02-04T01:25:28.582Z,4.98
2023-02-04T01:25:42.384Z,4.98
2023-02-04T01:25:54.158Z,4.96
2023-02-04T01:26:05.941Z,4.96
2023-02-04T01:26:19.692Z,4.96
2023-02-04T01:26:31.940Z,4.95
2023-02-04T01:26:45.196Z,4.95
2023-02-04T01:26:57.400Z,4.94
2023-02-04T01:27:08.142Z,4.94
2023-02-04T01:27:18.930Z,4.92
2023-02-04T01:27:30.673Z,4.95
2023-02-04T01:27:43.182Z,4.95
2023-02-04T01:27:55.637Z,4.96
2023-02-04T01:28:06.409Z,4.95
2023-02-04T01:28:19.644Z,4.95
2023-02-04T01:28:31.396Z,4.95
2023-02-04T01:28:42.164Z,4.95
2023-02-04T01:28:54.289Z,4.95
2023-02-04T01:29:05.112Z,4.94
2023-02-04T01:29:18.117Z,4.94
2023-02-04T01:29:28.861Z,4.92
2023-02-04T01:29:42.088Z,4.92
2023-02-04T01:29:54.574Z,4.94
2023-02-04T01:30:07.291Z,4.92
2023-02-04T01:30:18.072Z,4.92
2023-02-04T01:30:31.008Z,4.91
2023-02-04T01:30:41.917Z,4.91
2023-02-04T01:30:53.780Z,4.89
2023-02-04T01:31:05.793Z,4.89
2023-02-04T01:31:17.757Z,4.89
2023-02-04T01:31:30.865Z,4.88
2023-02-04T01:31:41.658Z,4.86
2023-02-04T01:31:54.193Z,4.86
2023-02-04T01:32:05.063Z,4.83
2023-02-04T01:32:15.918Z,4.83
2023-02-04T01:32:28.185Z,4.80
2023-02-04T01:32:39.938Z,4.80
2023-02-04T01:32:52.563Z,4.79
2023-02-04T01:33:05.041Z,4.79
2023-02-04T01:33:16.766Z,4.76
2023-02-04T01:33:27.568Z,4.76
2023-02-04T01:33:38.355Z,4.76
2023-02-04T01:33:50.827Z,4.75
2023-02-04T01:34:02.567Z,4.73
2023-02-04T01:34:13.387Z,4.73
2023-02-04T01:34:24.223Z,4.70
2023-02-04T01:34:35.004Z,4.70
2023-02-04T01:34:45.754Z,4.70
2023-02-04T01:34:57.306Z,4.70
2023-02-04T01:35:08.138Z,4.67
2023-02-04T01:35:18.935Z,4.69
2023-02-04T01:35:31.433Z,4.64
2023-02-04T01:35:42.242Z,4.64
2023-02-04T01:35:54.526Z,4.64
2023-02-04T01:36:05.326Z,4.65
2023-02-04T01:36:17.153Z,4.67
2023-02-04T01:36:27.993Z,4.65
2023-02-04T01:36:38.831Z,4.65
2023-02-04T01:36:49.659Z,4.67
2023-02-04T01:37:01.411Z,4.67
2023-02-04T01:37:12.162Z,4.67
2023-02-04T01:37:24.645Z,4.67
2023-02-04T01:37:35.488Z,4.67
2023-02-04T01:37:46.272Z,4.69
2023-02-04T01:37:57.035Z,4.67
2023-02-04T01:38:08.761Z,4.65
2023-02-04T01:38:19.534Z,4.67
2023-02-04T01:38:30.313Z,4.65
2023-02-04T01:38:41.105Z,4.65
2023-02-04T01:38:52.833Z,4.67
2023-02-04T01:39:03.646Z,4.67
2023-02-04T01:39:14.405Z,4.67
2023-02-04T01:39:25.243Z,4.67
2023-02-04T01:39:36.058Z,4.67
2023-02-04T01:39:46.835Z,4.69
2023-02-04T01:39:58.625Z,4.70
2023-02-04T01:40:09.401Z,4.72
2023-02-04T01:40:20.162Z,4.72
2023-02-04T01:40:31.400Z,4.73
2023-02-04T01:40:42.427Z,4.73
2023-02-04T01:40:53.223Z,4.75
2023-02-04T01:41:03.984Z,4.75
2023-02-04T01:41:15.741Z,4.76
2023-02-04T01:41:26.605Z,4.76
2023-02-04T01:41:37.420Z,4.77
2023-02-04T01:41:48.187Z,4.76
2023-02-04T01:41:59.946Z,4.77
2023-02-04T01:42:11.642Z,4.76
2023-02-04T01:42:22.380Z,4.77
2023-02-04T01:42:33.244Z,4.79
2023-02-04T01:42:44.036Z,4.79
2023-02-04T01:42:56.524Z,4.79
2023-02-04T01:43:07.296Z,4.79
2023-02-04T01:43:18.081Z,4.79
2023-02-04T01:43:28.846Z,4.79
2023-02-04T01:43:41.837Z,4.80
2023-02-04T01:43:54.566Z,4.83
2023-02-04T01:44:05.401Z,4.84
2023-02-04T01:44:17.184Z,4.86
2023-02-04T01:44:27.923Z,4.86
2023-02-04T01:44:40.393Z,4.86
2023-02-04T01:44:53.624Z,4.86
2023-02-04T01:45:04.405Z,4.86
2023-02-04T01:45:15.153Z,4.88
2023-02-04T01:45:28.423Z,4.86
2023-02-04T01:45:40.939Z,4.88
2023-02-04T01:45:53.506Z,4.88
2023-02-04T01:46:05.808Z,4.88
2023-02-04T01:46:18.334Z,4.88
2023-02-04T01:46:31.072Z,4.89
2023-02-04T01:46:43.332Z,4.89
2023-02-04T01:46:58.224Z,4.89
2023-02-04T01:47:12.856Z,4.89
2023-02-04T01:47:25.364Z,4.91
2023-02-04T01:47:37.801Z,4.91
2023-02-04T01:47:48.565Z,4.92
2023-02-04T01:48:01.335Z,4.92
2023-02-04T01:48:13.768Z,4.94
2023-02-04T01:48:24.582Z,4.94
2023-02-04T01:48:36.282Z,4.95
2023-02-04T01:48:49.286Z,4.95
2023-02-04T01:49:01.534Z,4.95
2023-02-04T01:49:13.763Z,4.95
2023-02-04T01:49:24.796Z,4.96
2023-02-04T01:49:36.524Z,4.96
2023-02-04T01:49:48.234Z,4.98
2023-02-04T01:49:59.965Z,4.96
2023-02-04T01:50:10.736Z,4.98
2023-02-04T01:50:23.946Z,4.98
2023-02-04T01:50:37.702Z,4.98
2023-02-04T01:50:48.477Z,4.99
2023-02-04T01:50:59.295Z,5.01
2023-02-04T01:51:11.753Z,5.01
2023-02-04T01:51:23.485Z,5.01
2023-02-04T01:51:35.184Z,5.02
2023-02-04T01:51:46.972Z,5.01
2023-02-04T01:51:59.197Z,5.02
2023-02-04T01:52:12.426Z,5.02
2023-02-04T01:52:24.147Z,5.04
2023-02-04T01:52:34.975Z,5.04
2023-02-04T01:52:46.685Z,5.04
2023-02-04T01:52:57.447Z,5.05
2023-02-04T01:53:09.173Z,5.05
2023-02-04T01:53:22.154Z,5.05
2023-02-04T01:53:34.763Z,5.05
2023-02-04T01:53:47.205Z,5.05
2023-02-04T01:54:01.349Z,5.05
2023-02-04T01:54:12.120Z,5.07
2023-02-04T01:54:22.941Z,5.07
2023-02-04T01:54:34.677Z,5.05
2023-02-04T01:54:45.478Z,5.07
2023-02-04T01:54:57.717Z,5.07
2023-02-04T01:55:09.955Z,5.09
2023-02-04T01:55:20.716Z,5.09
2023-02-04T01:55:31.512Z,5.09
2023-02-04T01:55:44.826Z,5.09
2023-02-04T01:55:56.585Z,5.10
2023-02-04T01:56:08.346Z,5.09
2023-02-04T01:56:20.631Z,5.09
2023-02-04T01:56:33.356Z,5.09
2023-02-04T01:56:46.376Z,5.10
2023-02-04T01:56:57.206Z,5.10
2023-02-04T01:57:07.939Z,5.10
2023-02-04T01:57:19.916Z,5.10
2023-02-04T01:57:30.708Z,5.10
2023-02-04T01:57:41.524Z,5.10
2023-02-04T01:57:52.322Z,5.10
2023-02-04T01:58:04.537Z,5.10
2023-02-04T01:58:17.515Z,5.10
2023-02-04T01:58:29.962Z,5.09
2023-02-04T01:58:41.684Z,5.09
2023-02-04T01:58:52.437Z,5.09
2023-02-04T01:59:05.904Z,5.09
2023-02-04T01:59:16.687Z,5.09
2023-02-04T01:59:29.165Z,5.09
2023-02-04T01:59:40.007Z,5.09
2023-02-04T01:59:50.796Z,5.07
2023-02-04T02:00:01.631Z,5.09
2023-02-04T02:00:13.627Z,5.05
2023-02-04T02:00:24.374Z,5.07
2023-02-04T02:00:36.088Z,5.05
2023-02-04T02:00:46.922Z,5.07
2023-02-04T02:00:58.733Z,5.07
2023-02-04T02:01:09.643Z,5.09
2023-02-04T02:01:21.438Z,5.07
2023-02-04T02:01:32.268Z,5.07
2023-02-04T02:01:43.033Z,5.05
2023-02-04T02:01:54.917Z,5.05
2023-02-04T02:02:07.393Z,5.05
2023-02-04T02:02:18.249Z,5.05
2023-02-04T02:02:30.003Z,5.05
2023-02-04T02:02:40.893Z,5.05
2023-02-04T02:02:51.708Z,5.05
2023-02-04T02:03:02.499Z,5.05
2023-02-04T02:03:13.273Z,5.07
2023-02-04T02:03:24.993Z,5.05
2023-02-04T02:03:37.995Z,5.05
2023-02-04T02:03:48.838Z,5.05
2023-02-04T02:03:59.660Z,5.07
2023-02-04T02:04:11.892Z,5.07
2023-02-04T02:04:24.150Z,5.05
2023-02-04T02:04:35.899Z,5.07
2023-02-04T02:04:46.693Z,5.05
2023-02-04T02:04:58.446Z,5.09
2023-02-04T02:05:09.247Z,5.07
2023-02-04T02:05:21.738Z,5.07
2023-02-04T02:05:34.728Z,5.07
2023-02-04T02:05:45.551Z,5.07
2023-02-04T02:05:58.029Z,5.07
2023-02-04T02:06:09.791Z,5.05
2023-02-04T02:06:22.046Z,5.05
2023-02-04T02:06:34.469Z,5.05
2023-02-04T02:06:46.938Z,5.07
2023-02-04T02:06:58.711Z,5.07
2023-02-04T02:07:11.190Z,5.04
2023-02-04T02:07:22.932Z,5.09
2023-02-04T02:07:36.140Z,5.07
2023-02-04T02:07:47.089Z,5.05
2023-02-04T02:07:58.849Z,5.05
2023-02-04T02:08:11.578Z,5.05
2023-02-04T02:08:22.381Z,5.05
2023-02-04T02:08:35.601Z,5.07
2023-02-04T02:08:46.348Z,5.07
2023-02-04T02:08:58.123Z,5.05
2023-02-04T02:09:11.364Z,5.07
2023-02-04T02:09:23.128Z,5.07
2023-02-04T02:09:35.597Z,5.05
2023-02-04T02:09:46.370Z,5.05
2023-02-04T02:09:58.139Z,5.05
2023-02-04T02:10:08.949Z,5.07
2023-02-04T02:10:19.774Z,5.07
2023-02-04T02:10:33.355Z,5.07
2023-02-04T02:10:45.960Z,5.07
2023-02-04T02:10:58.956Z,5.07
2023-02-04T02:11:10.729Z,5.09
2023-02-04T02:11:22.981Z,5.07
2023-02-04T02:11:33.751Z,5.07
2023-02-04T02:11:46.219Z,5.09
2023-02-04T02:11:56.990Z,5.09
2023-02-04T02:12:08.753Z,5.07
2023-02-04T02:12:19.528Z,5.09
2023-02-04T02:12:30.270Z,5.09
2023-02-04T02:12:42.730Z,5.09
2023-02-04T02:12:55.664Z,5.10
2023-02-04T02:13:06.421Z,5.09
2023-02-04T02:13:18.168Z,5.09
2023-02-04T02:13:29.869Z,5.10
2023-02-04T02:13:42.339Z,5.09
2023-02-04T02:13:55.080Z,5.09
2023-02-04T02:14:09.822Z,5.09
2023-02-04T02:14:22.110Z,5.09
2023-02-04T02:14:35.338Z,5.09
2023-02-04T02:14:47.097Z,5.07
2023-02-04T02:14:58.831Z,5.09
2023-02-04T02:15:09.628Z,5.09
2023-02-04T02:15:20.371Z,5.07
2023-02-04T02:15:31.176Z,5.07
2023-02-04T02:15:44.405Z,5.07
2023-02-04T02:15:57.629Z,5.07
2023-02-04T02:16:10.089Z,5.07
2023-02-04T02:16:22.445Z,5.07
2023-02-04T02:16:34.958Z,5.07
2023-02-04T02:16:47.524Z,5.07
2023-02-04T02:16:59.415Z,5.07
2023-02-04T02:17:12.251Z,5.07
2023-02-04T02:17:23.950Z,5.07
2023-02-04T02:17:36.423Z,5.07
2023-02-04T02:17:48.683Z,5.07
2023-02-04T02:17:59.450Z,5.09
2023-02-04T02:18:11.260Z,5.09
2023-02-04T02:18:22.028Z,5.10
2023-02-04T02:18:35.793Z,5.10
2023-02-04T02:18:48.286Z,5.10
2023-02-04T02:19:00.811Z,5.12
2023-02-04T02:19:11.572Z,5.10
2023-02-04T02:19:23.301Z,5.12
2023-02-04T02:19:34.052Z,5.10
2023-02-04T02:19:46.517Z,5.10
2023-02-04T02:19:58.981Z,5.12
2023-02-04T02:20:09.783Z,5.09
2023-02-04T02:20:20.540Z,5.12
2023-02-04T02:20:32.689Z,5.10
2023-02-04T02:20:44.558Z,5.10
2023-02-04T02:20:55.421Z,5.10
2023-02-04T02:21:06.162Z,5.10
2023-02-04T02:21:16.949Z,5.09
2023-02-04T02:21:28.704Z,5.09
2023-02-04T02:21:39.463Z,5.10
2023-02-04T02:21:50.281Z,5.10
2023-02-04T02:22:01.050Z,5.10
2023-02-04T02:22:13.290Z,5.10
2023-02-04T02:22:25.014Z,5.10
2023-02-04T02:22:35.821Z,5.10
2023-02-04T02:22:48.236Z,5.10
2023-02-04T02:22:59.985Z,5.10
2023-02-04T02:23:10.743Z,5.10
2023-02-04T02:23:23.171Z,5.09
2023-02-04T02:23:33.922Z,5.09
2023-02-04T02:23:46.145Z,5.07
2023-02-04T02:23:56.912Z,5.07
2023-02-04T02:24:08.664Z,5.07
2023-02-04T02:24:21.195Z,5.07
2023-02-04T02:24:32.033Z,5.05
2023-02-04T02:24:43.804Z,5.07
2023-02-04T02:24:56.301Z,5.05
2023-02-04T02:25:08.743Z,5.05
2023-02-04T02:25:19.791Z,5.04
2023-02-04T02:25:30.627Z,5.04
2023-02-04T02:25:41.441Z,5.05
2023-02-04T02:25:53.212Z,5.04
2023-02-04T02:26:05.432Z,5.05
2023-02-04T02:26:17.935Z,5.04
2023-02-04T02:26:29.691Z,5.05
2023-02-04T02:26:42.169Z,5.05
2023-02-04T02:26:55.152Z,5.05
2023-02-04T02:27:05.912Z,5.05
2023-02-04T02:27:18.342Z,5.07
2023-02-04T02:27:30.854Z,5.05
2023-02-04T02:27:43.113Z,5.05
2023-02-04T02:27:53.935Z,5.05
2023-02-04T02:28:05.696Z,5.05
2023-02-04T02:28:18.181Z,5.07
2023-02-04T02:28:30.667Z,5.07
2023-02-04T02:28:41.452Z,5.07
2023-02-04T02:28:52.302Z,5.05
2023-02-04T02:29:04.042Z,5.07
2023-02-04T02:29:17.279Z,5.07
2023-02-04T02:29:28.063Z,5.07
2023-02-04T02:29:40.584Z,5.07
2023-02-04T02:29:53.038Z,5.05
2023-02-04T02:30:04.763Z,5.07
2023-02-04T02:30:16.953Z,5.05
2023-02-04T02:30:30.632Z,5.07
2023-02-04T02:30:43.311Z,5.05
2023-02-04T02:30:55.850Z,5.07
2023-02-04T02:31:09.706Z,5.05
2023-02-04T02:31:22.285Z,5.05
2023-02-04T02:31:35.751Z,5.05
2023-02-04T02:31:49.075Z,5.05
2023-02-04T02:32:00.833Z,5.07
2023-02-04T02:32:13.801Z,5.05
2023-02-04T02:32:25.532Z,5.05
2023-02-04T02:32:37.283Z,5.04
2023-02-04T02:32:48.045Z,5.05
2023-02-04T02:33:00.508Z,5.05
2023-02-04T02:33:13.733Z,5.05
2023-02-04T02:33:25.470Z,5.04
2023-02-04T02:33:36.214Z,5.05
2023-02-04T02:33:48.687Z,5.05
2023-02-04T02:34:01.167Z,5.04
2023-02-04T02:34:13.644Z,5.04
2023-02-04T02:34:24.434Z,5.05
2023-02-04T02:34:38.014Z,5.04
2023-02-04T02:34:50.477Z,5.05
2023-02-04T02:35:01.488Z,5.05
2023-02-04T02:35:13.229Z,5.05
2023-02-04T02:35:25.451Z,5.05
2023-02-04T02:35:37.689Z,5.05
2023-02-04T02:35:48.536Z,5.05
2023-02-04T02:36:02.273Z,5.05
2023-02-04T02:36:14.005Z,5.05
2023-02-04T02:36:26.483Z,5.07
2023-02-04T02:36:38.427Z,5.07
2023-02-04T02:36:50.889Z,5.05